sensor_id;sensor_type;location;lat;lon;timestamp;P1;durP1;ratioP1;P2;durP2;ratioP2
14414;SDS011;7307;50.852;4.314;2022-08-19T00:01:22;13.90;;;11.80;;
14414;SDS011;7307;50.852;4.314;2022-08-19T00:03:49;12.82;;;11.60;;
14414;SDS011;7307;50.852;4.314;2022-08-19T00:06:15;13.98;;;12.35;;
14414;SDS011;7307;50.852;4.314;2022-08-19T00:08:40;14.50;;;12.75;;
14414;SDS011;7307;50.852;4.314;2022-08-19T00:11:06;13.88;;;12.30;;
14414;SDS011;7307;50.852;4.314;2022-08-19T00:13:32;16.80;;;13.70;;
14414;SDS011;7307;50.852;4.314;2022-08-19T00:15:58;16.67;;;14.52;;
14414;SDS011;7307;50.852;4.314;2022-08-19T00:18:25;18.67;;;14.95;;
14414;SDS011;7307;50.852;4.314;2022-08-19T00:20:51;18.80;;;16.50;;
14414;SDS011;7307;50.852;4.314;2022-08-19T00:23:17;21.15;;;16.85;;
14414;SDS011;7307;50.852;4.314;2022-08-19T00:25:43;20.45;;;17.73;;
14414;SDS011;7307;50.852;4.314;2022-08-19T00:28:09;23.10;;;17.55;;
14414;SDS011;7307;50.852;4.314;2022-08-19T00:30:35;25.83;;;19.73;;
14414;SDS011;7307;50.852;4.314;2022-08-19T00:33:01;23.83;;;20.63;;
14414;SDS011;7307;50.852;4.314;2022-08-19T00:35:27;24.83;;;20.13;;
14414;SDS011;7307;50.852;4.314;2022-08-19T00:37:53;24.05;;;19.27;;
14414;SDS011;7307;50.852;4.314;2022-08-19T00:40:19;26.25;;;20.45;;
14414;SDS011;7307;50.852;4.314;2022-08-19T00:42:45;23.25;;;19.77;;
14414;SDS011;7307;50.852;4.314;2022-08-19T00:45:14;27.77;;;21.42;;
14414;SDS011;7307;50.852;4.314;2022-08-19T00:47:43;26.85;;;21.95;;
14414;SDS011;7307;50.852;4.314;2022-08-19T00:50:11;29.92;;;23.42;;
14414;SDS011;7307;50.852;4.314;2022-08-19T00:52:41;28.67;;;23.83;;
14414;SDS011;7307;50.852;4.314;2022-08-19T00:55:10;28.95;;;21.52;;
14414;SDS011;7307;50.852;4.314;2022-08-19T00:57:40;30.92;;;23.65;;
14414;SDS011;7307;50.852;4.314;2022-08-19T01:00:11;28.58;;;22.15;;
14414;SDS011;7307;50.852;4.314;2022-08-19T01:02:38;29.15;;;22.20;;
14414;SDS011;7307;50.852;4.314;2022-08-19T01:05:07;29.27;;;22.98;;
14414;SDS011;7307;50.852;4.314;2022-08-19T01:07:37;27.60;;;22.52;;
14414;SDS011;7307;50.852;4.314;2022-08-19T01:10:05;25.98;;;21.60;;
14414;SDS011;7307;50.852;4.314;2022-08-19T01:12:33;27.10;;;22.90;;
14414;SDS011;7307;50.852;4.314;2022-08-19T01:14:59;27.25;;;22.27;;
14414;SDS011;7307;50.852;4.314;2022-08-19T01:17:25;27.95;;;21.35;;
14414;SDS011;7307;50.852;4.314;2022-08-19T01:19:52;28.30;;;22.63;;
14414;SDS011;7307;50.852;4.314;2022-08-19T01:22:20;29.85;;;21.63;;
14414;SDS011;7307;50.852;4.314;2022-08-19T01:24:56;28.52;;;21.90;;
14414;SDS011;7307;50.852;4.314;2022-08-19T01:27:22;27.27;;;21.80;;
14414;SDS011;7307;50.852;4.314;2022-08-19T01:29:48;26.63;;;21.73;;
14414;SDS011;7307;50.852;4.314;2022-08-19T01:32:15;26.60;;;20.55;;
14414;SDS011;7307;50.852;4.314;2022-08-19T01:34:41;27.48;;;21.63;;
14414;SDS011;7307;50.852;4.314;2022-08-19T01:37:11;26.98;;;21.15;;
14414;SDS011;7307;50.852;4.314;2022-08-19T01:39:38;25.75;;;20.45;;
14414;SDS011;7307;50.852;4.314;2022-08-19T01:42:06;24.58;;;19.15;;
14414;SDS011;7307;50.852;4.314;2022-08-19T01:44:35;22.83;;;19.05;;
14414;SDS011;7307;50.852;4.314;2022-08-19T01:47:01;22.73;;;19.05;;
14414;SDS011;7307;50.852;4.314;2022-08-19T01:49:28;22.30;;;18.67;;
14414;SDS011;7307;50.852;4.314;2022-08-19T01:51:54;22.23;;;17.75;;
14414;SDS011;7307;50.852;4.314;2022-08-19T01:54:21;21.77;;;17.38;;
14414;SDS011;7307;50.852;4.314;2022-08-19T01:56:48;19.95;;;17.25;;
14414;SDS011;7307;50.852;4.314;2022-08-19T01:59:16;20.75;;;17.70;;
14414;SDS011;7307;50.852;4.314;2022-08-19T02:01:44;20.48;;;17.30;;
14414;SDS011;7307;50.852;4.314;2022-08-19T02:04:10;21.20;;;15.85;;
14414;SDS011;7307;50.852;4.314;2022-08-19T02:06:36;20.63;;;16.17;;
14414;SDS011;7307;50.852;4.314;2022-08-19T02:09:02;18.83;;;14.50;;
14414;SDS011;7307;50.852;4.314;2022-08-19T02:11:32;17.05;;;13.27;;
14414;SDS011;7307;50.852;4.314;2022-08-19T02:14:00;14.40;;;11.55;;
14414;SDS011;7307;50.852;4.314;2022-08-19T02:16:28;14.43;;;11.93;;
14414;SDS011;7307;50.852;4.314;2022-08-19T02:18:55;14.27;;;11.55;;
14414;SDS011;7307;50.852;4.314;2022-08-19T02:21:21;13.50;;;11.88;;
14414;SDS011;7307;50.852;4.314;2022-08-19T02:23:49;13.32;;;10.52;;
14414;SDS011;7307;50.852;4.314;2022-08-19T02:26:15;18.42;;;13.48;;
14414;SDS011;7307;50.852;4.314;2022-08-19T02:28:41;16.50;;;13.05;;
14414;SDS011;7307;50.852;4.314;2022-08-19T02:31:15;14.07;;;12.38;;
14414;SDS011;7307;50.852;4.314;2022-08-19T02:33:42;17.25;;;13.00;;
14414;SDS011;7307;50.852;4.314;2022-08-19T02:36:10;17.75;;;13.63;;
14414;SDS011;7307;50.852;4.314;2022-08-19T02:38:36;17.83;;;13.60;;
14414;SDS011;7307;50.852;4.314;2022-08-19T02:41:05;16.63;;;13.55;;
14414;SDS011;7307;50.852;4.314;2022-08-19T02:43:35;14.95;;;12.55;;
14414;SDS011;7307;50.852;4.314;2022-08-19T02:46:02;17.13;;;13.55;;
14414;SDS011;7307;50.852;4.314;2022-08-19T02:48:46;16.70;;;13.68;;
14414;SDS011;7307;50.852;4.314;2022-08-19T02:51:17;16.50;;;13.52;;
14414;SDS011;7307;50.852;4.314;2022-08-19T02:53:45;18.77;;;13.93;;
14414;SDS011;7307;50.852;4.314;2022-08-19T02:56:11;16.67;;;13.40;;
14414;SDS011;7307;50.852;4.314;2022-08-19T02:58:37;19.15;;;13.55;;
14414;SDS011;7307;50.852;4.314;2022-08-19T03:01:03;17.90;;;14.43;;
14414;SDS011;7307;50.852;4.314;2022-08-19T03:03:28;20.45;;;14.70;;
14414;SDS011;7307;50.852;4.314;2022-08-19T03:06:07;18.90;;;15.05;;
14414;SDS011;7307;50.852;4.314;2022-08-19T03:08:35;16.90;;;13.82;;
14414;SDS011;7307;50.852;4.314;2022-08-19T03:11:01;17.48;;;14.40;;
14414;SDS011;7307;50.852;4.314;2022-08-19T03:13:28;17.35;;;14.38;;
14414;SDS011;7307;50.852;4.314;2022-08-19T03:15:54;18.17;;;13.88;;
14414;SDS011;7307;50.852;4.314;2022-08-19T03:18:19;19.15;;;14.05;;
14414;SDS011;7307;50.852;4.314;2022-08-19T03:20:47;17.52;;;14.15;;
14414;SDS011;7307;50.852;4.314;2022-08-19T03:23:16;18.42;;;14.75;;
14414;SDS011;7307;50.852;4.314;2022-08-19T03:25:43;20.13;;;15.38;;
14414;SDS011;7307;50.852;4.314;2022-08-19T03:28:11;17.85;;;14.80;;
14414;SDS011;7307;50.852;4.314;2022-08-19T03:30:39;17.20;;;14.07;;
14414;SDS011;7307;50.852;4.314;2022-08-19T03:33:07;18.75;;;14.68;;
14414;SDS011;7307;50.852;4.314;2022-08-19T03:35:34;17.08;;;13.43;;
14414;SDS011;7307;50.852;4.314;2022-08-19T03:38:01;16.20;;;13.20;;
14414;SDS011;7307;50.852;4.314;2022-08-19T03:40:31;17.33;;;13.27;;
14414;SDS011;7307;50.852;4.314;2022-08-19T03:42:57;16.48;;;13.95;;
14414;SDS011;7307;50.852;4.314;2022-08-19T03:45:23;15.57;;;12.63;;
14414;SDS011;7307;50.852;4.314;2022-08-19T03:47:49;16.20;;;12.60;;
14414;SDS011;7307;50.852;4.314;2022-08-19T03:50:15;17.30;;;13.82;;
14414;SDS011;7307;50.852;4.314;2022-08-19T03:52:40;15.55;;;12.38;;
14414;SDS011;7307;50.852;4.314;2022-08-19T03:55:06;18.05;;;13.48;;
14414;SDS011;7307;50.852;4.314;2022-08-19T03:57:32;16.95;;;12.50;;
14414;SDS011;7307;50.852;4.314;2022-08-19T03:59:59;18.15;;;12.70;;
14414;SDS011;7307;50.852;4.314;2022-08-19T04:02:25;18.10;;;13.75;;
14414;SDS011;7307;50.852;4.314;2022-08-19T04:04:52;15.95;;;12.60;;
14414;SDS011;7307;50.852;4.314;2022-08-19T04:07:19;15.93;;;13.52;;
14414;SDS011;7307;50.852;4.314;2022-08-19T04:09:46;17.83;;;13.90;;
14414;SDS011;7307;50.852;4.314;2022-08-19T04:12:12;12.63;;;11.27;;
14414;SDS011;7307;50.852;4.314;2022-08-19T04:14:38;16.45;;;12.73;;
14414;SDS011;7307;50.852;4.314;2022-08-19T04:17:04;17.33;;;13.63;;
14414;SDS011;7307;50.852;4.314;2022-08-19T04:19:30;17.92;;;13.00;;
14414;SDS011;7307;50.852;4.314;2022-08-19T04:21:57;15.60;;;12.73;;
14414;SDS011;7307;50.852;4.314;2022-08-19T04:24:23;17.15;;;12.88;;
14414;SDS011;7307;50.852;4.314;2022-08-19T04:26:49;17.38;;;12.98;;
14414;SDS011;7307;50.852;4.314;2022-08-19T04:29:16;17.98;;;12.77;;
14414;SDS011;7307;50.852;4.314;2022-08-19T04:31:46;13.95;;;11.75;;
14414;SDS011;7307;50.852;4.314;2022-08-19T04:34:13;16.15;;;12.73;;
14414;SDS011;7307;50.852;4.314;2022-08-19T04:36:41;18.63;;;13.50;;
14414;SDS011;7307;50.852;4.314;2022-08-19T04:39:11;19.50;;;12.20;;
14414;SDS011;7307;50.852;4.314;2022-08-19T04:41:39;16.23;;;12.02;;
14414;SDS011;7307;50.852;4.314;2022-08-19T04:44:23;14.05;;;11.70;;
14414;SDS011;7307;50.852;4.314;2022-08-19T04:46:49;16.05;;;11.98;;
14414;SDS011;7307;50.852;4.314;2022-08-19T04:49:17;17.85;;;11.30;;
14414;SDS011;7307;50.852;4.314;2022-08-19T04:51:44;15.45;;;11.38;;
14414;SDS011;7307;50.852;4.314;2022-08-19T04:54:12;15.30;;;11.00;;
14414;SDS011;7307;50.852;4.314;2022-08-19T04:56:39;14.20;;;11.25;;
14414;SDS011;7307;50.852;4.314;2022-08-19T04:59:05;16.92;;;11.35;;
14414;SDS011;7307;50.852;4.314;2022-08-19T05:01:32;16.17;;;10.98;;
14414;SDS011;7307;50.852;4.314;2022-08-19T05:04:01;14.27;;;10.02;;
14414;SDS011;7307;50.852;4.314;2022-08-19T05:06:29;13.43;;;10.40;;
14414;SDS011;7307;50.852;4.314;2022-08-19T05:08:58;15.48;;;10.00;;
14414;SDS011;7307;50.852;4.314;2022-08-19T05:11:25;13.35;;;10.20;;
14414;SDS011;7307;50.852;4.314;2022-08-19T05:13:57;14.48;;;9.93;;
14414;SDS011;7307;50.852;4.314;2022-08-19T05:16:23;14.77;;;10.98;;
14414;SDS011;7307;50.852;4.314;2022-08-19T05:18:50;18.08;;;10.55;;
14414;SDS011;7307;50.852;4.314;2022-08-19T05:21:35;19.15;;;10.75;;
14414;SDS011;7307;50.852;4.314;2022-08-19T05:24:21;20.38;;;10.93;;
14414;SDS011;7307;50.852;4.314;2022-08-19T05:26:48;26.67;;;13.95;;
14414;SDS011;7307;50.852;4.314;2022-08-19T05:29:16;16.13;;;10.30;;
14414;SDS011;7307;50.852;4.314;2022-08-19T05:31:44;15.30;;;9.88;;
14414;SDS011;7307;50.852;4.314;2022-08-19T05:34:12;14.38;;;10.95;;
14414;SDS011;7307;50.852;4.314;2022-08-19T05:36:40;13.38;;;10.95;;
14414;SDS011;7307;50.852;4.314;2022-08-19T05:39:08;18.00;;;12.52;;
14414;SDS011;7307;50.852;4.314;2022-08-19T05:41:58;17.88;;;11.85;;
14414;SDS011;7307;50.852;4.314;2022-08-19T05:44:28;16.15;;;11.48;;
14414;SDS011;7307;50.852;4.314;2022-08-19T05:46:58;17.58;;;11.43;;
14414;SDS011;7307;50.852;4.314;2022-08-19T05:49:25;14.20;;;9.45;;
14414;SDS011;7307;50.852;4.314;2022-08-19T05:51:52;14.82;;;8.50;;
14414;SDS011;7307;50.852;4.314;2022-08-19T05:54:19;13.23;;;8.32;;
14414;SDS011;7307;50.852;4.314;2022-08-19T05:56:45;16.77;;;8.52;;
14414;SDS011;7307;50.852;4.314;2022-08-19T05:59:13;14.35;;;8.23;;
14414;SDS011;7307;50.852;4.314;2022-08-19T06:01:41;9.13;;;7.10;;
14414;SDS011;7307;50.852;4.314;2022-08-19T06:04:11;13.23;;;7.13;;
14414;SDS011;7307;50.852;4.314;2022-08-19T06:06:38;9.63;;;6.68;;
14414;SDS011;7307;50.852;4.314;2022-08-19T06:09:05;13.48;;;6.80;;
14414;SDS011;7307;50.852;4.314;2022-08-19T06:13:59;9.57;;;5.75;;
14414;SDS011;7307;50.852;4.314;2022-08-19T06:16:27;8.68;;;5.90;;
14414;SDS011;7307;50.852;4.314;2022-08-19T06:18:54;7.07;;;5.55;;
14414;SDS011;7307;50.852;4.314;2022-08-19T06:21:22;8.27;;;6.10;;
14414;SDS011;7307;50.852;4.314;2022-08-19T06:23:49;7.25;;;5.10;;
14414;SDS011;7307;50.852;4.314;2022-08-19T06:26:16;6.90;;;5.05;;
14414;SDS011;7307;50.852;4.314;2022-08-19T06:28:44;9.15;;;5.38;;
14414;SDS011;7307;50.852;4.314;2022-08-19T06:31:14;8.75;;;5.88;;
14414;SDS011;7307;50.852;4.314;2022-08-19T06:33:45;7.75;;;4.63;;
14414;SDS011;7307;50.852;4.314;2022-08-19T06:36:19;7.55;;;5.43;;
14414;SDS011;7307;50.852;4.314;2022-08-19T06:38:52;7.82;;;5.15;;
14414;SDS011;7307;50.852;4.314;2022-08-19T06:41:19;8.38;;;4.75;;
14414;SDS011;7307;50.852;4.314;2022-08-19T06:43:45;8.32;;;4.63;;
14414;SDS011;7307;50.852;4.314;2022-08-19T06:46:12;6.80;;;4.57;;
14414;SDS011;7307;50.852;4.314;2022-08-19T06:48:39;7.10;;;4.60;;
14414;SDS011;7307;50.852;4.314;2022-08-19T06:51:05;5.03;;;4.18;;
14414;SDS011;7307;50.852;4.314;2022-08-19T06:53:31;7.88;;;4.70;;
14414;SDS011;7307;50.852;4.314;2022-08-19T06:55:57;6.47;;;4.38;;
14414;SDS011;7307;50.852;4.314;2022-08-19T06:58:25;6.82;;;4.07;;
14414;SDS011;7307;50.852;4.314;2022-08-19T07:00:51;6.28;;;3.90;;
14414;SDS011;7307;50.852;4.314;2022-08-19T07:03:16;4.57;;;4.10;;
14414;SDS011;7307;50.852;4.314;2022-08-19T07:05:42;4.93;;;3.92;;
14414;SDS011;7307;50.852;4.314;2022-08-19T07:08:08;5.55;;;4.07;;
14414;SDS011;7307;50.852;4.314;2022-08-19T07:10:34;5.38;;;3.60;;
14414;SDS011;7307;50.852;4.314;2022-08-19T07:13:01;5.00;;;3.40;;
14414;SDS011;7307;50.852;4.314;2022-08-19T07:15:28;4.78;;;3.60;;
14414;SDS011;7307;50.852;4.314;2022-08-19T07:17:55;5.03;;;3.83;;
14414;SDS011;7307;50.852;4.314;2022-08-19T07:20:21;4.97;;;3.50;;
14414;SDS011;7307;50.852;4.314;2022-08-19T07:22:46;5.30;;;3.45;;
14414;SDS011;7307;50.852;4.314;2022-08-19T07:25:12;4.78;;;3.28;;
14414;SDS011;7307;50.852;4.314;2022-08-19T07:27:38;5.90;;;3.80;;
14414;SDS011;7307;50.852;4.314;2022-08-19T07:30:04;5.28;;;3.78;;
14414;SDS011;7307;50.852;4.314;2022-08-19T07:32:30;4.22;;;3.30;;
14414;SDS011;7307;50.852;4.314;2022-08-19T07:34:56;5.20;;;3.60;;
14414;SDS011;7307;50.852;4.314;2022-08-19T07:37:22;5.28;;;3.30;;
14414;SDS011;7307;50.852;4.314;2022-08-19T07:39:48;4.32;;;3.25;;
14414;SDS011;7307;50.852;4.314;2022-08-19T07:42:14;13.00;;;3.70;;
14414;SDS011;7307;50.852;4.314;2022-08-19T07:44:40;4.47;;;3.10;;
14414;SDS011;7307;50.852;4.314;2022-08-19T07:47:06;4.80;;;3.63;;
14414;SDS011;7307;50.852;4.314;2022-08-19T07:49:32;5.18;;;3.00;;
14414;SDS011;7307;50.852;4.314;2022-08-19T07:52:00;4.05;;;2.90;;
14414;SDS011;7307;50.852;4.314;2022-08-19T07:54:31;4.97;;;3.20;;
14414;SDS011;7307;50.852;4.314;2022-08-19T07:57:01;6.13;;;2.90;;
14414;SDS011;7307;50.852;4.314;2022-08-19T07:59:28;4.78;;;3.10;;
14414;SDS011;7307;50.852;4.314;2022-08-19T08:01:54;5.75;;;3.22;;
14414;SDS011;7307;50.852;4.314;2022-08-19T08:04:20;5.82;;;3.10;;
14414;SDS011;7307;50.852;4.314;2022-08-19T08:07:06;5.65;;;3.45;;
14414;SDS011;7307;50.852;4.314;2022-08-19T08:09:51;3.50;;;2.78;;
14414;SDS011;7307;50.852;4.314;2022-08-19T08:12:19;4.55;;;3.20;;
14414;SDS011;7307;50.852;4.314;2022-08-19T08:14:54;5.22;;;3.20;;
14414;SDS011;7307;50.852;4.314;2022-08-19T08:17:23;3.72;;;2.92;;
14414;SDS011;7307;50.852;4.314;2022-08-19T08:19:51;3.53;;;2.90;;
14414;SDS011;7307;50.852;4.314;2022-08-19T08:22:18;3.10;;;2.60;;
14414;SDS011;7307;50.852;4.314;2022-08-19T08:25:06;3.25;;;2.40;;
14414;SDS011;7307;50.852;4.314;2022-08-19T08:27:37;4.07;;;2.70;;
14414;SDS011;7307;50.852;4.314;2022-08-19T08:30:07;4.78;;;2.83;;
14414;SDS011;7307;50.852;4.314;2022-08-19T08:32:45;5.72;;;3.17;;
14414;SDS011;7307;50.852;4.314;2022-08-19T08:35:12;4.55;;;2.97;;
14414;SDS011;7307;50.852;4.314;2022-08-19T08:37:40;4.55;;;2.80;;
14414;SDS011;7307;50.852;4.314;2022-08-19T08:40:11;3.65;;;2.88;;
14414;SDS011;7307;50.852;4.314;2022-08-19T08:43:32;3.60;;;2.63;;
14414;SDS011;7307;50.852;4.314;2022-08-19T08:46:03;4.47;;;2.60;;
14414;SDS011;7307;50.852;4.314;2022-08-19T08:48:36;4.18;;;2.97;;
14414;SDS011;7307;50.852;4.314;2022-08-19T08:51:12;3.10;;;2.80;;
14414;SDS011;7307;50.852;4.314;2022-08-19T08:53:43;4.18;;;2.42;;
14414;SDS011;7307;50.852;4.314;2022-08-19T08:56:11;3.40;;;2.72;;
14414;SDS011;7307;50.852;4.314;2022-08-19T09:01:44;4.60;;;2.90;;
14414;SDS011;7307;50.852;4.314;2022-08-19T09:04:09;3.60;;;2.78;;
14414;SDS011;7307;50.852;4.314;2022-08-19T09:06:39;2.97;;;2.60;;
14414;SDS011;7307;50.852;4.314;2022-08-19T09:09:26;5.05;;;2.95;;
14414;SDS011;7307;50.852;4.314;2022-08-19T09:14:49;3.70;;;2.85;;
14414;SDS011;7307;50.852;4.314;2022-08-19T09:17:26;3.13;;;2.30;;
14414;SDS011;7307;50.852;4.314;2022-08-19T09:22:37;4.00;;;2.90;;
14414;SDS011;7307;50.852;4.314;2022-08-19T09:25:06;3.50;;;2.20;;
14414;SDS011;7307;50.852;4.314;2022-08-19T09:27:35;3.78;;;2.80;;
14414;SDS011;7307;50.852;4.314;2022-08-19T09:30:03;2.78;;;2.50;;
14414;SDS011;7307;50.852;4.314;2022-08-19T09:32:31;3.70;;;2.85;;
14414;SDS011;7307;50.852;4.314;2022-08-19T09:34:57;8.32;;;3.03;;
14414;SDS011;7307;50.852;4.314;2022-08-19T09:37:25;4.72;;;2.97;;
14414;SDS011;7307;50.852;4.314;2022-08-19T09:39:51;4.22;;;2.63;;
14414;SDS011;7307;50.852;4.314;2022-08-19T09:42:17;4.05;;;2.90;;
14414;SDS011;7307;50.852;4.314;2022-08-19T09:44:43;3.40;;;2.65;;
14414;SDS011;7307;50.852;4.314;2022-08-19T09:47:09;3.30;;;2.60;;
14414;SDS011;7307;50.852;4.314;2022-08-19T09:49:37;4.85;;;2.50;;
14414;SDS011;7307;50.852;4.314;2022-08-19T09:52:04;3.85;;;2.30;;
14414;SDS011;7307;50.852;4.314;2022-08-19T09:54:32;4.47;;;3.15;;
14414;SDS011;7307;50.852;4.314;2022-08-19T09:56:58;2.28;;;2.08;;
14414;SDS011;7307;50.852;4.314;2022-08-19T09:59:25;3.42;;;2.53;;
14414;SDS011;7307;50.852;4.314;2022-08-19T10:01:51;4.07;;;3.05;;
14414;SDS011;7307;50.852;4.314;2022-08-19T10:04:17;4.13;;;2.67;;
14414;SDS011;7307;50.852;4.314;2022-08-19T10:06:43;4.40;;;2.80;;
14414;SDS011;7307;50.852;4.314;2022-08-19T10:09:09;3.53;;;2.50;;
14414;SDS011;7307;50.852;4.314;2022-08-19T10:11:36;4.55;;;2.75;;
14414;SDS011;7307;50.852;4.314;2022-08-19T10:14:04;3.85;;;2.65;;
14414;SDS011;7307;50.852;4.314;2022-08-19T10:16:33;3.42;;;2.20;;
14414;SDS011;7307;50.852;4.314;2022-08-19T10:19:01;3.53;;;2.47;;
14414;SDS011;7307;50.852;4.314;2022-08-19T10:21:29;2.95;;;2.55;;
14414;SDS011;7307;50.852;4.314;2022-08-19T10:23:57;4.25;;;2.72;;
14414;SDS011;7307;50.852;4.314;2022-08-19T10:26:29;2.88;;;2.25;;
14414;SDS011;7307;50.852;4.314;2022-08-19T10:28:57;3.42;;;2.67;;
14414;SDS011;7307;50.852;4.314;2022-08-19T10:31:24;5.05;;;2.50;;
14414;SDS011;7307;50.852;4.314;2022-08-19T10:33:53;3.50;;;2.60;;
14414;SDS011;7307;50.852;4.314;2022-08-19T10:36:23;2.72;;;2.45;;
14414;SDS011;7307;50.852;4.314;2022-08-19T10:38:51;10.52;;;3.45;;
14414;SDS011;7307;50.852;4.314;2022-08-19T10:41:22;3.72;;;2.92;;
14414;SDS011;7307;50.852;4.314;2022-08-19T10:43:53;7.70;;;3.15;;
14414;SDS011;7307;50.852;4.314;2022-08-19T10:46:22;5.43;;;2.70;;
14414;SDS011;7307;50.852;4.314;2022-08-19T10:48:49;3.70;;;2.97;;
14414;SDS011;7307;50.852;4.314;2022-08-19T10:51:15;5.95;;;3.58;;
14414;SDS011;7307;50.852;4.314;2022-08-19T10:54:00;7.25;;;3.90;;
14414;SDS011;7307;50.852;4.314;2022-08-19T10:56:27;5.85;;;4.30;;
14414;SDS011;7307;50.852;4.314;2022-08-19T10:59:12;4.03;;;3.55;;
14414;SDS011;7307;50.852;4.314;2022-08-19T11:01:39;6.45;;;4.13;;
14414;SDS011;7307;50.852;4.314;2022-08-19T11:04:06;7.07;;;4.30;;
14414;SDS011;7307;50.852;4.314;2022-08-19T11:06:35;5.28;;;3.53;;
14414;SDS011;7307;50.852;4.314;2022-08-19T11:09:01;4.95;;;4.05;;
14414;SDS011;7307;50.852;4.314;2022-08-19T11:11:28;8.43;;;4.28;;
14414;SDS011;7307;50.852;4.314;2022-08-19T11:13:54;4.88;;;3.70;;
14414;SDS011;7307;50.852;4.314;2022-08-19T11:16:21;5.45;;;3.50;;
14414;SDS011;7307;50.852;4.314;2022-08-19T11:18:49;3.55;;;2.90;;
14414;SDS011;7307;50.852;4.314;2022-08-19T11:21:21;3.60;;;2.67;;
14414;SDS011;7307;50.852;4.314;2022-08-19T11:23:52;3.30;;;2.95;;
14414;SDS011;7307;50.852;4.314;2022-08-19T11:26:20;4.07;;;2.95;;
14414;SDS011;7307;50.852;4.314;2022-08-19T11:28:47;4.50;;;3.15;;
14414;SDS011;7307;50.852;4.314;2022-08-19T11:31:14;4.80;;;3.53;;
14414;SDS011;7307;50.852;4.314;2022-08-19T11:33:42;5.97;;;4.45;;
14414;SDS011;7307;50.852;4.314;2022-08-19T11:36:08;7.53;;;4.75;;
14414;SDS011;7307;50.852;4.314;2022-08-19T11:38:34;5.70;;;4.72;;
14414;SDS011;7307;50.852;4.314;2022-08-19T11:41:02;8.00;;;5.38;;
14414;SDS011;7307;50.852;4.314;2022-08-19T11:43:30;7.35;;;5.13;;
14414;SDS011;7307;50.852;4.314;2022-08-19T11:45:56;7.95;;;5.35;;
14414;SDS011;7307;50.852;4.314;2022-08-19T11:48:23;8.75;;;5.35;;
14414;SDS011;7307;50.852;4.314;2022-08-19T11:50:49;6.53;;;5.45;;
14414;SDS011;7307;50.852;4.314;2022-08-19T11:53:17;7.43;;;5.40;;
14414;SDS011;7307;50.852;4.314;2022-08-19T11:55:45;7.88;;;5.22;;
14414;SDS011;7307;50.852;4.314;2022-08-19T11:58:12;5.88;;;5.35;;
14414;SDS011;7307;50.852;4.314;2022-08-19T12:00:39;5.68;;;4.68;;
14414;SDS011;7307;50.852;4.314;2022-08-19T12:03:06;5.40;;;4.63;;
14414;SDS011;7307;50.852;4.314;2022-08-19T12:05:32;5.90;;;4.85;;
14414;SDS011;7307;50.852;4.314;2022-08-19T12:07:58;5.38;;;4.72;;
14414;SDS011;7307;50.852;4.314;2022-08-19T12:10:24;5.13;;;3.70;;
14414;SDS011;7307;50.852;4.314;2022-08-19T12:12:50;8.00;;;4.15;;
14414;SDS011;7307;50.852;4.314;2022-08-19T12:15:15;5.80;;;4.20;;
14414;SDS011;7307;50.852;4.314;2022-08-19T12:17:41;5.13;;;3.92;;
14414;SDS011;7307;50.852;4.314;2022-08-19T12:20:08;4.80;;;3.30;;
14414;SDS011;7307;50.852;4.314;2022-08-19T12:22:37;4.40;;;3.75;;
14414;SDS011;7307;50.852;4.314;2022-08-19T12:25:06;5.43;;;3.65;;
14414;SDS011;7307;50.852;4.314;2022-08-19T12:27:33;4.97;;;3.58;;
14414;SDS011;7307;50.852;4.314;2022-08-19T12:30:00;4.43;;;3.28;;
14414;SDS011;7307;50.852;4.314;2022-08-19T12:32:27;4.00;;;3.35;;
14414;SDS011;7307;50.852;4.314;2022-08-19T12:34:53;2.63;;;2.42;;
14414;SDS011;7307;50.852;4.314;2022-08-19T12:37:19;3.80;;;3.40;;
14414;SDS011;7307;50.852;4.314;2022-08-19T12:39:45;4.15;;;2.63;;
14414;SDS011;7307;50.852;4.314;2022-08-19T12:42:11;4.10;;;2.83;;
14414;SDS011;7307;50.852;4.314;2022-08-19T12:44:38;5.30;;;2.88;;
14414;SDS011;7307;50.852;4.314;2022-08-19T12:47:06;6.18;;;2.30;;
14414;SDS011;7307;50.852;4.314;2022-08-19T12:49:33;3.70;;;2.45;;
14414;SDS011;7307;50.852;4.314;2022-08-19T12:52:02;2.58;;;2.35;;
14414;SDS011;7307;50.852;4.314;2022-08-19T12:54:29;2.97;;;2.10;;
14414;SDS011;7307;50.852;4.314;2022-08-19T12:56:55;3.13;;;2.10;;
14414;SDS011;7307;50.852;4.314;2022-08-19T12:59:22;2.63;;;1.70;;
14414;SDS011;7307;50.852;4.314;2022-08-19T13:01:47;3.83;;;2.20;;
14414;SDS011;7307;50.852;4.314;2022-08-19T13:04:13;3.30;;;2.08;;
14414;SDS011;7307;50.852;4.314;2022-08-19T13:06:39;3.15;;;2.22;;
14414;SDS011;7307;50.852;4.314;2022-08-19T13:09:05;1.92;;;1.63;;
14414;SDS011;7307;50.852;4.314;2022-08-19T13:11:30;1.70;;;1.60;;
14414;SDS011;7307;50.852;4.314;2022-08-19T13:13:58;3.67;;;2.00;;
14414;SDS011;7307;50.852;4.314;2022-08-19T13:16:24;1.85;;;1.75;;
14414;SDS011;7307;50.852;4.314;2022-08-19T13:18:52;2.78;;;1.85;;
14414;SDS011;7307;50.852;4.314;2022-08-19T13:21:19;2.22;;;1.90;;
14414;SDS011;7307;50.852;4.314;2022-08-19T13:23:48;2.22;;;1.98;;
14414;SDS011;7307;50.852;4.314;2022-08-19T13:26:14;1.75;;;1.50;;
14414;SDS011;7307;50.852;4.314;2022-08-19T13:28:41;1.92;;;1.73;;
14414;SDS011;7307;50.852;4.314;2022-08-19T13:31:28;2.00;;;1.40;;
14414;SDS011;7307;50.852;4.314;2022-08-19T13:34:14;2.95;;;1.60;;
14414;SDS011;7307;50.852;4.314;2022-08-19T13:36:41;4.95;;;2.20;;
14414;SDS011;7307;50.852;4.314;2022-08-19T13:39:07;2.05;;;1.70;;
14414;SDS011;7307;50.852;4.314;2022-08-19T13:41:34;2.50;;;1.73;;
14414;SDS011;7307;50.852;4.314;2022-08-19T13:44:00;2.70;;;1.65;;
14414;SDS011;7307;50.852;4.314;2022-08-19T13:46:26;2.95;;;1.48;;
14414;SDS011;7307;50.852;4.314;2022-08-19T13:48:54;3.13;;;1.52;;
14414;SDS011;7307;50.852;4.314;2022-08-19T13:51:19;1.92;;;1.42;;
14414;SDS011;7307;50.852;4.314;2022-08-19T13:53:45;2.17;;;1.40;;
14414;SDS011;7307;50.852;4.314;2022-08-19T13:56:14;3.08;;;1.50;;
14414;SDS011;7307;50.852;4.314;2022-08-19T13:58:41;4.13;;;1.60;;
14414;SDS011;7307;50.852;4.314;2022-08-19T14:01:07;7.57;;;1.80;;
14414;SDS011;7307;50.852;4.314;2022-08-19T14:03:34;3.92;;;1.90;;
14414;SDS011;7307;50.852;4.314;2022-08-19T14:06:00;3.20;;;1.33;;
14414;SDS011;7307;50.852;4.314;2022-08-19T14:08:27;3.50;;;1.77;;
14414;SDS011;7307;50.852;4.314;2022-08-19T14:10:55;2.90;;;1.65;;
14414;SDS011;7307;50.852;4.314;2022-08-19T14:13:22;3.28;;;1.60;;
14414;SDS011;7307;50.852;4.314;2022-08-19T14:15:48;2.72;;;1.80;;
14414;SDS011;7307;50.852;4.314;2022-08-19T14:18:15;1.90;;;1.65;;
14414;SDS011;7307;50.852;4.314;2022-08-19T14:20:42;1.50;;;1.35;;
14414;SDS011;7307;50.852;4.314;2022-08-19T14:23:08;1.90;;;1.40;;
14414;SDS011;7307;50.852;4.314;2022-08-19T14:25:34;4.25;;;1.55;;
14414;SDS011;7307;50.852;4.314;2022-08-19T14:27:59;2.47;;;1.50;;
14414;SDS011;7307;50.852;4.314;2022-08-19T14:30:27;1.83;;;1.40;;
14414;SDS011;7307;50.852;4.314;2022-08-19T14:32:57;1.65;;;1.30;;
14414;SDS011;7307;50.852;4.314;2022-08-19T14:35:25;1.52;;;1.13;;
14414;SDS011;7307;50.852;4.314;2022-08-19T14:37:52;2.55;;;1.40;;
14414;SDS011;7307;50.852;4.314;2022-08-19T14:40:25;2.28;;;1.40;;
14414;SDS011;7307;50.852;4.314;2022-08-19T14:42:53;3.58;;;1.35;;
14414;SDS011;7307;50.852;4.314;2022-08-19T14:45:25;1.38;;;1.27;;
14414;SDS011;7307;50.852;4.314;2022-08-19T14:47:52;1.83;;;1.40;;
14414;SDS011;7307;50.852;4.314;2022-08-19T14:50:18;3.35;;;1.60;;
14414;SDS011;7307;50.852;4.314;2022-08-19T14:52:45;1.67;;;1.10;;
14414;SDS011;7307;50.852;4.314;2022-08-19T14:55:12;2.88;;;1.45;;
14414;SDS011;7307;50.852;4.314;2022-08-19T14:57:40;2.08;;;1.15;;
14414;SDS011;7307;50.852;4.314;2022-08-19T15:00:24;2.13;;;1.17;;
14414;SDS011;7307;50.852;4.314;2022-08-19T15:02:50;1.23;;;1.00;;
14414;SDS011;7307;50.852;4.314;2022-08-19T15:05:19;1.63;;;1.00;;
14414;SDS011;7307;50.852;4.314;2022-08-19T15:07:46;2.38;;;1.23;;